Flight Number: EUR2033 Duration: 0:45
Departure: Munich Int'l (EDDM) at 06:45 Distance: 192 Nm
Arrival: Vienna Schwechat (LOWW) at 07:30 Equipment: B737

Weather Information
Munchen, Germany (EDDM) 48-21N 011-47E May 20, 2018 - 09:50 AM EDT / 2018.05.20 1350 UTC
Wind: from the E (080 degrees) at 16 MPH (14 KT) (direction variable):0
Visibility: greater than 7 mile(s):0 Temperature: 69 F (21 C) Dew Point: 46 F (8 C) Relative Humidity: 43% Pressure (altimeter): 30.06 in. Hg (1018 hPa)
ob: EDDM 201350Z 08014KT 040V110 CAVOK 21/08 Q1018 NOSIG cycle: 14
Sunrise: 03:30 Sunset: 18:48 (UTC)

Wien / Schwechat-Flughafen, Austria (LOWW) 48-07N 016-34E 190M May 20, 2018 - 09:50 AM EDT / 2018.05.20 1350 UTC
Wind: from the NE (040 degrees) at 7 MPH (6 KT) (direction variable):0
Visibility: greater than 7 mile(s):0 Temperature: 71 F (22 C) Dew Point: 42 F (6 C) Relative Humidity: 35% Pressure (altimeter): 30.12 in. Hg (1020 hPa)
ob: LOWW 201350Z 04006KT 010V090 CAVOK 22/06 Q1020 NOSIG cycle: 14
Sunrise: 03:12 Sunset: 18:28 (UTC)

TAF:2018/05/20 12:21 TAF COR LOWW 201105Z 2012/2118 09006KT 9999 FEW050 BKN200 TX23/2115Z TN11/2103Z PROB40 TEMPO 2012/2018 FEW050CB BKN200 BECMG 2018/2020 VRB02KT CAVOK BECMG 2107/2109 13009KT 9999 FEW050 SCT250 BECMG 2116/2118 12004KT

Previous Pireps for this route
Date Aircraft Flight time Fuel used Landing rate On time
2012-09-27B7370.595900-312No
2012-10-23B73701.1010845-584No
2012-12-29B737.4343000No
2013-03-26B7371.1100000No
2013-04-23B7372120000No
2013-05-28B7370.5350000No
2013-07-07B73701.128013-665No
2013-07-09B73700.545867-668No
2013-07-11B73700.465508-398No
2013-07-23B73700.505000-350No
2013-10-26B73701.178464-134No
2014-03-23B73701.098745-348Yes
2014-06-25B7371.2032540No
2014-08-23B73701.056921-175Yes
2014-12-08B73701.0052030Charter
2015-01-12B73701.155483-96Yes
2015-01-13B73701.175392-243Yes
2015-01-27B73701.146651-138Yes
2015-03-12B73700.524863-168Yes
2015-03-28B73700.413913-98Yes
2015-04-06B73700.442904-152Yes
2015-07-12B7370.4651380Yes
2015-07-15B7370.5053240Yes
2015-08-17B77701.4917819-556Charter
2015-12-18B73701.045799-361Charter
2016-07-23B7371.0410312-184Yes
(pireps marked green are flown by you)

Route map